Weather at Columbia Metropolitan Airport

Public forecast

Using degrees Fahrenheit for public forecast. Weather courtesy of forecast.io.

Current aviation weather report (METAR) for Columbia Metropolitan Airport

2024/05/28 12:56 (retrieved 18 minutes ago)

KCAE 281256Z 27007KT 10SM FEW090 SCT220 26/21 A2995 RMK AO2 SLP139 T02560211

Aviation forecast (TAF) for Columbia Metropolitan Airport

2024/05/28 12:39 (retrieved 35 minutes ago)

TAF KCAE 281137Z 2812/2912 28006KT P6SM FEW015 TEMPO 2812/2814 6SM BR SCT015 FM281600 29008G18KT P6SM SCT050 FM290000 VRB03KT P6SM FEW250